Wetterdaten: Woche 03.05.04 - 09.05.04 (KW19)
Datum Zeit Temperatur Luftfeuchte Luftdruck Regenmenge Wind Richtung Taupunkt Windchill
03.05.2004 00:00 9.7 C 82 % 1009.4 hPa 0.0 l/m 1.1 km/h (1 Bft) O 6.7 C 9.7 C
03.05.2004 01:00 8.4 C 88 % 1009.6 hPa 0.0 l/m 2.1 km/h (1 Bft) O 6.5 C 8.3 C
03.05.2004 02:00 7.5 C 94 % 1009.7 hPa 0.0 l/m 3.5 km/h (1 Bft) O 6.6 C 7.3 C
03.05.2004 03:00 7.4 C 96 % 1008.8 hPa 0.0 l/m 0.3 km/h (0 Bft) O 6.8 C 7.4 C
03.05.2004 04:00 7.2 C 96 % 1008.7 hPa 0.0 l/m 0.2 km/h (0 Bft) O-SO 6.6 C 7.2 C
03.05.2004 05:00 6.8 C 98 % 1008.2 hPa 0.0 l/m 1.8 km/h (1 Bft) O 6.6 C 6.7 C
03.05.2004 06:00 6.3 C 99 % 1007.8 hPa 0.0 l/m 0.0 km/h (0 Bft) N 6.2 C 6.3 C
03.05.2004 07:00 7.6 C 97 % 1007.6 hPa 0.0 l/m 0.0 km/h (0 Bft) N 7.2 C 7.6 C
03.05.2004 08:00 9.3 C 85 % 1007.4 hPa 0.0 l/m 0.0 km/h (0 Bft) N 6.8 C 9.3 C
03.05.2004 09:00 11.5 C 70 % 1007.1 hPa 0.0 l/m 0.1 km/h (0 Bft) NW 6.2 C 11.5 C
03.05.2004 10:00 14.0 C 60 % 1005.8 hPa 0.0 l/m 1.3 km/h (1 Bft) W-NW 6.3 C 14.0 C
03.05.2004 11:00 16.8 C 52 % 1004.9 hPa 0.0 l/m 3.7 km/h (1 Bft) W-NW 6.7 C 16.8 C
03.05.2004 12:00 19.7 C 43 % 1003.4 hPa 0.0 l/m 6.4 km/h (2 Bft) O-SO 6.6 C 19.7 C
03.05.2004 13:00 21.2 C 36 % 1002.2 hPa 0.0 l/m 6.7 km/h (2 Bft) O-SO 5.6 C 21.2 C
03.05.2004 14:00 22.8 C 30 % 1001.4 hPa 0.0 l/m 9.5 km/h (2 Bft) O-SO 4.2 C 22.8 C
03.05.2004 15:00 22.7 C 31 % 1000.6 hPa 0.0 l/m 5.4 km/h (1 Bft) O-SO 4.6 C 22.7 C
03.05.2004 16:00 21.0 C 33 % 1000.6 hPa 0.0 l/m 1.9 km/h (1 Bft) NW 4.1 C 21.0 C
03.05.2004 17:00 18.3 C 46 % 1001.0 hPa 0.0 l/m 10.7 km/h (2 Bft) O-SO 6.4 C 18.3 C
03.05.2004 18:00 17.7 C 48 % 1000.8 hPa 0.0 l/m 7.5 km/h (2 Bft) NW 6.5 C 17.7 C
03.05.2004 19:00 17.1 C 49 % 1000.4 hPa 0.0 l/m 9.1 km/h (2 Bft) W-NW 6.3 C 17.1 C
03.05.2004 20:00 16.1 C 53 % 1001.2 hPa 0.0 l/m 5.9 km/h (2 Bft) W-NW 6.4 C 16.1 C
03.05.2004 21:00 15.4 C 59 % 1001.9 hPa 0.0 l/m 5.0 km/h (1 Bft) W-NW 7.3 C 15.4 C
03.05.2004 22:00 14.6 C 65 % 1002.5 hPa 0.0 l/m 3.6 km/h (1 Bft) W-NW 8.2 C 14.6 C
03.05.2004 23:00 14.1 C 68 % 1002.5 hPa 0.0 l/m 6.0 km/h (2 Bft) W-NW 8.2 C 14.1 C
04.05.2004 00:00 12.9 C 83 % 1002.7 hPa 0.0 l/m 0.7 km/h (0 Bft) W-NW 10.0 C 12.9 C
04.05.2004 01:00 12.0 C 93 % 1002.0 hPa 0.0 l/m 0.0 km/h (0 Bft) N 10.8 C 12.0 C
04.05.2004 02:00 11.5 C 94 % 1001.6 hPa 0.0 l/m 0.0 km/h (0 Bft) N 10.6 C 11.5 C
04.05.2004 03:00 11.3 C 93 % 1000.8 hPa 0.0 l/m 0.0 km/h (0 Bft) N 10.2 C 11.3 C
04.05.2004 04:00 11.1 C 96 % 999.9 hPa 0.0 l/m 0.0 km/h (0 Bft) N 10.5 C 11.1 C
04.05.2004 05:00 10.4 C 97 % 999.8 hPa 0.0 l/m 0.0 km/h (0 Bft) N 10.0 C 10.4 C
04.05.2004 06:00 10.1 C 99 % 999.3 hPa 0.0 l/m 0.0 km/h (0 Bft) N 9.9 C 10.1 C
04.05.2004 07:00 11.1 C 92 % 998.8 hPa 0.0 l/m 0.0 km/h (0 Bft) N 9.9 C 11.1 C
04.05.2004 08:00 12.4 C 84 % 998.6 hPa 0.0 l/m 0.0 km/h (0 Bft) N 9.8 C 12.4 C
04.05.2004 09:00 14.1 C 77 % 997.9 hPa 0.0 l/m 0.0 km/h (0 Bft) N 10.1 C 14.1 C
04.05.2004 10:00 14.9 C 70 % 996.8 hPa 0.0 l/m 0.0 km/h (0 Bft) N 9.5 C 14.9 C
04.05.2004 11:00 16.9 C 58 % 995.8 hPa 0.0 l/m 0.2 km/h (0 Bft) NW 8.7 C 16.9 C
04.05.2004 12:00 18.7 C 48 % 994.5 hPa 0.0 l/m 0.8 km/h (0 Bft) NW 7.6 C 18.7 C
04.05.2004 13:00 19.6 C 46 % 993.5 hPa 0.0 l/m 1.1 km/h (0 Bft) O-SO 7.6 C 19.6 C
04.05.2004 14:00 20.0 C 44 % 992.4 hPa 0.0 l/m 6.9 km/h (2 Bft) NW 7.4 C 20.0 C
04.05.2004 15:00 19.1 C 45 % 991.9 hPa 0.0 l/m 12.1 km/h (2 Bft) W-NW 7.0 C 19.1 C
04.05.2004 16:00 18.6 C 46 % 991.6 hPa 0.0 l/m 22.9 km/h (4 Bft) NW 6.7 C 18.6 C
04.05.2004 17:00 18.0 C 43 % 991.7 hPa 0.0 l/m 19.9 km/h (4 Bft) NW 5.4 C 18.0 C
04.05.2004 18:00 16.1 C 49 % 991.9 hPa 0.0 l/m 32.4 km/h (5 Bft) NW 5.5 C 16.1 C
04.05.2004 19:00 14.5 C 57 % 991.8 hPa 0.0 l/m 5.4 km/h (1 Bft) W-NW 6.0 C 14.5 C
04.05.2004 20:00 13.3 C 75 % 991.2 hPa 0.0 l/m 4.2 km/h (1 Bft) SO 8.8 C 13.3 C
04.05.2004 21:00 12.5 C 88 % 991.7 hPa 0.7 l/m 6.3 km/h (2 Bft) O-SO 10.6 C 12.5 C
04.05.2004 22:00 12.1 C 97 % 991.5 hPa 1.7 l/m 0.4 km/h (0 Bft) SO 11.5 C 12.1 C
04.05.2004 23:00 11.8 C 100 % 991.4 hPa 0.0 l/m 0.8 km/h (0 Bft) W-NW 11.7 C 11.8 C
05.05.2004 00:00 10.3 C 98 % 991.6 hPa 0.7 l/m 19.1 km/h (3 Bft) NW 10.0 C 9.5 C
05.05.2004 01:00 9.6 C 97 % 991.7 hPa 0.3 l/m 8.4 km/h (2 Bft) NW 9.2 C 8.5 C
05.05.2004 02:00 9.2 C 94 % 990.9 hPa 0.0 l/m 4.5 km/h (1 Bft) NW 8.2 C 8.6 C
05.05.2004 03:00 9.2 C 96 % 990.7 hPa 0.0 l/m 1.5 km/h (1 Bft) W-NW 8.6 C 9.1 C
05.05.2004 04:00 8.9 C 98 % 990.8 hPa 0.3 l/m 2.3 km/h (1 Bft) W-NW 8.6 C 8.7 C
05.05.2004 05:00 8.5 C 99 % 990.8 hPa 1.0 l/m 0.0 km/h (0 Bft) N 8.3 C 8.5 C
05.05.2004 06:00 8.1 C 100 % 990.9 hPa 2.0 l/m 1.2 km/h (1 Bft) SO 8.1 C 8.0 C
05.05.2004 07:00 8.1 C 100 % 990.9 hPa 1.7 l/m 0.1 km/h (0 Bft) N 8.1 C 8.1 C
05.05.2004 08:00 8.3 C 100 % 991.2 hPa 1.3 l/m 1.2 km/h (1 Bft) W-NW 8.3 C 8.2 C
05.05.2004 09:00 8.1 C 99 % 991.9 hPa 1.3 l/m 1.9 km/h (1 Bft) NW 7.9 C 7.8 C
05.05.2004 10:00 7.1 C 94 % 993.0 hPa 1.3 l/m 9.5 km/h (2 Bft) NW 6.3 C 5.6 C
05.05.2004 11:00 7.7 C 94 % 993.0 hPa 0.0 l/m 1.5 km/h (1 Bft) NW 6.8 C 7.5 C
05.05.2004 12:00 8.2 C 89 % 993.0 hPa 0.0 l/m 2.2 km/h (1 Bft) W 6.6 C 7.9 C
05.05.2004 13:00 9.1 C 79 % 992.8 hPa 0.0 l/m 4.7 km/h (1 Bft) W-NW 5.7 C 8.5 C
05.05.2004 14:00 9.4 C 75 % 992.8 hPa 0.0 l/m 9.4 km/h (2 Bft) W-NW 5.2 C 8.1 C
05.05.2004 15:00 9.4 C 80 % 992.8 hPa 0.0 l/m 5.0 km/h (1 Bft) SO 6.1 C 8.8 C
05.05.2004 16:00 9.1 C 79 % 992.8 hPa 0.0 l/m 11.2 km/h (2 Bft) SO 5.6 C 7.4 C
05.05.2004 17:00 8.1 C 84 % 993.0 hPa 0.0 l/m 10.2 km/h (2 Bft) SO 5.5 C 6.4 C
05.05.2004 18:00 7.1 C 88 % 993.1 hPa 0.0 l/m 6.1 km/h (2 Bft) O-SO 5.3 C 6.1 C
05.05.2004 19:00 6.6 C 89 % 993.5 hPa 0.0 l/m 5.6 km/h (1 Bft) O 4.9 C 5.6 C
05.05.2004 20:00 6.2 C 90 % 994.3 hPa 0.0 l/m 1.5 km/h (1 Bft) SO 4.7 C 6.0 C
05.05.2004 21:00 6.0 C 90 % 994.3 hPa 0.0 l/m 7.1 km/h (2 Bft) SO 4.6 C 4.7 C
05.05.2004 22:00 5.8 C 91 % 994.4 hPa 0.0 l/m 0.2 km/h (0 Bft) SW 4.5 C 5.8 C
05.05.2004 23:00 5.8 C 92 % 994.5 hPa 0.0 l/m 0.1 km/h (0 Bft) N 4.6 C 5.8 C
06.05.2004 00:00 5.7 C 92 % 994.4 hPa 0.0 l/m 1.2 km/h (1 Bft) SO 4.6 C 5.6 C
06.05.2004 01:00 5.7 C 96 % 994.3 hPa 0.3 l/m 0.0 km/h (0 Bft) N 5.2 C 5.7 C
06.05.2004 02:00 5.7 C 99 % 994.3 hPa 0.0 l/m 0.0 km/h (0 Bft) N 5.5 C 5.7 C
06.05.2004 03:00 5.4 C 100 % 994.4 hPa 0.3 l/m 0.0 km/h (0 Bft) N 5.4 C 5.4 C
06.05.2004 04:00 5.4 C 100 % 994.4 hPa 0.7 l/m 0.0 km/h (0 Bft) N 5.4 C 5.4 C
06.05.2004 05:00 5.4 C 100 % 994.4 hPa 1.0 l/m 0.0 km/h (0 Bft) N 5.4 C 5.4 C
06.05.2004 06:00 5.6 C 100 % 994.3 hPa 1.0 l/m 0.0 km/h (0 Bft) N 5.6 C 5.6 C
06.05.2004 07:00 5.9 C 100 % 994.5 hPa 0.3 l/m 0.0 km/h (0 Bft) N 5.9 C 5.9 C
06.05.2004 08:00 6.0 C 100 % 995.3 hPa 2.0 l/m 0.1 km/h (0 Bft) N 6.0 C 6.0 C
06.05.2004 09:00 6.4 C 100 % 995.3 hPa 0.7 l/m 0.4 km/h (0 Bft) W 6.4 C 6.4 C
06.05.2004 10:00 7.4 C 99 % 995.5 hPa 0.7 l/m 0.5 km/h (0 Bft) N-NO 7.2 C 7.4 C
06.05.2004 11:00 7.1 C 98 % 996.2 hPa 0.7 l/m 0.5 km/h (0 Bft) S-SW 6.8 C 7.1 C
06.05.2004 12:00 7.0 C 100 % 997.1 hPa 0.7 l/m 3.0 km/h (1 Bft) SO 6.9 C 6.5 C
06.05.2004 13:00 7.4 C 99 % 997.2 hPa 1.0 l/m 1.8 km/h (1 Bft) S-SO 7.3 C 7.2 C
06.05.2004 14:00 7.5 C 96 % 997.7 hPa 1.0 l/m 8.4 km/h (2 Bft) W-NW 6.9 C 6.2 C
06.05.2004 15:00 8.2 C 93 % 998.1 hPa 0.3 l/m 5.6 km/h (1 Bft) W-NW 7.2 C 7.4 C
06.05.2004 16:00 8.8 C 84 % 998.1 hPa 0.0 l/m 14.4 km/h (3 Bft) W-NW 6.3 C 6.9 C
06.05.2004 17:00 9.6 C 76 % 998.4 hPa 0.0 l/m 10.2 km/h (2 Bft) W-NW 5.6 C 8.6 C
06.05.2004 18:00 9.2 C 74 % 999.1 hPa 0.0 l/m 14.1 km/h (3 Bft) W-NW 4.8 C 7.2 C
06.05.2004 19:00 8.3 C 79 % 999.8 hPa 0.0 l/m 10.5 km/h (2 Bft) W-NW 4.9 C 6.7 C
06.05.2004 20:00 7.9 C 85 % 1000.3 hPa 0.0 l/m 4.2 km/h (1 Bft) W-NW 5.4 C 7.2 C
06.05.2004 21:00 7.1 C 93 % 1001.1 hPa 0.0 l/m 1.5 km/h (1 Bft) O-SO 6.1 C 7.0 C
06.05.2004 22:00 7.0 C 96 % 1001.4 hPa 0.0 l/m 1.8 km/h (1 Bft) SO 6.4 C 6.8 C
06.05.2004 23:00 6.8 C 96 % 1001.5 hPa 0.0 l/m 0.1 km/h (0 Bft) N 6.2 C 6.8 C
07.05.2004 00:00 6.4 C 97 % 1001.5 hPa 0.0 l/m 0.2 km/h (0 Bft) N 5.9 C 6.4 C
07.05.2004 01:00 5.8 C 98 % 1001.6 hPa 0.0 l/m 3.9 km/h (1 Bft) SO 5.5 C 5.3 C
07.05.2004 02:00 6.2 C 100 % 1001.6 hPa 0.0 l/m 1.5 km/h (1 Bft) O-SO 6.2 C 5.9 C
07.05.2004 03:00 5.9 C 100 % 1001.6 hPa 0.0 l/m 0.9 km/h (0 Bft) SO 5.9 C 5.8 C
07.05.2004 04:00 5.8 C 100 % 1001.6 hPa 0.0 l/m 3.4 km/h (1 Bft) SO 5.8 C 5.2 C
07.05.2004 05:00 6.0 C 100 % 1001.6 hPa 0.0 l/m 0.1 km/h (0 Bft) W 6.0 C 6.0 C
07.05.2004 06:00 6.1 C 100 % 1002.5 hPa 0.0 l/m 0.7 km/h (0 Bft) W 6.0 C 6.1 C
07.05.2004 07:00 6.9 C 93 % 1002.5 hPa 0.0 l/m 1.0 km/h (0 Bft) W 5.8 C 6.8 C
07.05.2004 08:00 7.4 C 83 % 1002.8 hPa 0.0 l/m 9.5 km/h (2 Bft) W-NW 4.6 C 5.7 C
07.05.2004 09:00 8.2 C 75 % 1003.3 hPa 0.0 l/m 14.3 km/h (3 Bft) W-NW 4.0 C 6.1 C
07.05.2004 10:00 9.2 C 66 % 1003.2 hPa 0.0 l/m 23.1 km/h (4 Bft) W-NW 3.2 C 6.4 C
07.05.2004 11:00 7.8 C 82 % 1003.4 hPa 0.7 l/m 13.2 km/h (3 Bft) W-NW 4.7 C 5.9 C
07.05.2004 12:00 9.5 C 75 % 1003.2 hPa 0.0 l/m 12.5 km/h (3 Bft) W-NW 5.3 C 8.3 C
07.05.2004 13:00 10.3 C 61 % 1003.1 hPa 0.0 l/m 22.4 km/h (4 Bft) NW 3.2 C 8.8 C
07.05.2004 14:00 10.8 C 57 % 1003.0 hPa 0.0 l/m 28.9 km/h (5 Bft) NW 2.5 C 10.6 C
07.05.2004 15:00 11.4 C 50 % 1002.5 hPa 0.0 l/m 34.6 km/h (5 Bft) NW 1.4 C 11.4 C
07.05.2004 16:00 12.8 C 43 % 1001.7 hPa 0.0 l/m 28.4 km/h (4 Bft) NW 0.5 C 12.8 C
07.05.2004 17:00 12.9 C 46 % 1002.5 hPa 0.0 l/m 24.5 km/h (4 Bft) NW 1.5 C 12.9 C
07.05.2004 18:00 12.2 C 47 % 1002.8 hPa 0.0 l/m 22.5 km/h (4 Bft) NW 1.1 C 12.2 C
07.05.2004 19:00 10.8 C 55 % 1003.0 hPa 0.0 l/m 16.7 km/h (3 Bft) NW 2.0 C 10.7 C
07.05.2004 20:00 8.6 C 68 % 1004.0 hPa 0.0 l/m 0.3 km/h (0 Bft) W-SW 3.0 C 8.6 C
07.05.2004 21:00 7.1 C 80 % 1004.5 hPa 0.0 l/m 4.7 km/h (1 Bft) O-SO 3.9 C 6.4 C
07.05.2004 22:00 6.6 C 88 % 1005.1 hPa 0.0 l/m 1.2 km/h (1 Bft) SO 4.7 C 6.5 C
07.05.2004 23:00 6.5 C 90 % 1005.7 hPa 0.0 l/m 1.1 km/h (1 Bft) O-SO 5.0 C 6.4 C
08.05.2004 00:00 6.0 C 93 % 1005.7 hPa 0.0 l/m 1.1 km/h (0 Bft) O-SO 4.8 C 5.8 C
08.05.2004 01:00 6.1 C 91 % 1005.7 hPa 0.0 l/m 2.0 km/h (1 Bft) SO 4.8 C 5.7 C
08.05.2004 02:00 6.9 C 83 % 1004.9 hPa 0.0 l/m 6.5 km/h (2 Bft) SO 4.2 C 5.8 C
08.05.2004 03:00 6.9 C 81 % 1004.6 hPa 0.0 l/m 1.2 km/h (1 Bft) SO 3.8 C 6.9 C
08.05.2004 04:00 6.6 C 82 % 1004.6 hPa 0.0 l/m 3.6 km/h (1 Bft) O 3.7 C 6.1 C
08.05.2004 05:00 6.3 C 89 % 1004.7 hPa 0.7 l/m 4.3 km/h (1 Bft) W-NW 4.7 C 5.6 C
08.05.2004 06:00 6.0 C 97 % 1004.7 hPa 0.0 l/m 0.5 km/h (0 Bft) O-SO 5.6 C 6.0 C
08.05.2004 07:00 6.6 C 97 % 1005.5 hPa 0.0 l/m 1.7 km/h (1 Bft) W-NW 6.2 C 6.4 C
08.05.2004 08:00 7.4 C 89 % 1005.5 hPa 0.0 l/m 6.5 km/h (2 Bft) W-SW 5.7 C 6.5 C
08.05.2004 09:00 8.4 C 76 % 1005.4 hPa 0.0 l/m 11.2 km/h (2 Bft) W-NW 4.4 C 6.9 C
08.05.2004 10:00 9.3 C 69 % 1005.3 hPa 0.0 l/m 15.4 km/h (3 Bft) W-NW 3.9 C 7.1 C
08.05.2004 11:00 10.0 C 66 % 1005.2 hPa 0.0 l/m 11.0 km/h (2 Bft) W 3.8 C 9.3 C
08.05.2004 12:00 10.7 C 58 % 1005.3 hPa 0.0 l/m 16.2 km/h (3 Bft) W-NW 2.8 C 10.5 C
08.05.2004 13:00 11.4 C 52 % 1005.6 hPa 0.0 l/m 22.1 km/h (4 Bft) NW 1.9 C 11.4 C
08.05.2004 14:00 10.7 C 53 % 1005.7 hPa 0.0 l/m 23.8 km/h (4 Bft) NW 1.4 C 10.7 C
08.05.2004 15:00 10.8 C 52 % 1005.2 hPa 0.0 l/m 20.6 km/h (4 Bft) W-NW 1.3 C 10.8 C
08.05.2004 16:00 10.1 C 57 % 1005.3 hPa 0.0 l/m 21.1 km/h (4 Bft) W-NW 1.9 C 9.2 C
08.05.2004 17:00 9.6 C 61 % 1005.2 hPa 0.0 l/m 19.3 km/h (3 Bft) NW 2.4 C 7.3 C
08.05.2004 18:00 9.1 C 64 % 1005.3 hPa 0.0 l/m 21.0 km/h (4 Bft) W-NW 2.6 C 6.2 C
08.05.2004 19:00 8.2 C 70 % 1005.4 hPa 0.0 l/m 18.9 km/h (3 Bft) NW 3.1 C 5.5 C
08.05.2004 20:00 7.5 C 78 % 1005.5 hPa 1.0 l/m 16.8 km/h (3 Bft) NW 3.8 C 4.9 C
08.05.2004 21:00 6.4 C 92 % 1005.7 hPa 2.7 l/m 19.7 km/h (3 Bft) W 5.2 C 3.2 C
08.05.2004 22:00 5.9 C 98 % 1006.3 hPa 5.4 l/m 11.1 km/h (2 Bft) W-NW 5.7 C 3.8 C
08.05.2004 23:00 5.6 C 99 % 1006.5 hPa 3.0 l/m 12.0 km/h (2 Bft) NW 5.4 C 3.4 C
09.05.2004 00:00 5.6 C 100 % 1005.8 hPa 0.3 l/m 13.0 km/h (3 Bft) NW 5.6 C 3.1 C
09.05.2004 01:00 5.4 C 100 % 1006.2 hPa 2.0 l/m 8.3 km/h (2 Bft) N-NW 5.4 C 3.8 C
09.05.2004 02:00 5.6 C 100 % 1005.8 hPa 1.7 l/m 10.4 km/h (2 Bft) NW 5.6 C 3.5 C
09.05.2004 03:00 5.5 C 100 % 1005.8 hPa 2.0 l/m 4.9 km/h (1 Bft) W-NW 5.5 C 4.6 C
09.05.2004 04:00 5.4 C 100 % 1005.8 hPa 2.0 l/m 3.6 km/h (1 Bft) W-NW 5.4 C 4.8 C
09.05.2004 05:00 5.2 C 100 % 1006.7 hPa 4.0 l/m 1.1 km/h (0 Bft) NW 5.2 C 5.1 C
09.05.2004 06:00 4.7 C 100 % 1007.1 hPa 3.0 l/m 1.8 km/h (1 Bft) NW 4.7 C 4.4 C
09.05.2004 07:00 4.5 C 100 % 1008.0 hPa 2.0 l/m 2.5 km/h (1 Bft) W-NW 4.5 C 4.1 C
09.05.2004 08:00 5.0 C 100 % 1008.2 hPa 1.3 l/m 1.9 km/h (1 Bft) NW 4.9 C 4.9 C
09.05.2004 09:00 5.6 C 98 % 1008.9 hPa 0.7 l/m 1.6 km/h (1 Bft) N-NO 5.4 C 5.4 C
09.05.2004 10:00 6.1 C 98 % 1008.8 hPa 0.3 l/m 1.6 km/h (1 Bft) W-NW 5.8 C 5.9 C
09.05.2004 11:00 7.0 C 97 % 1008.9 hPa 0.3 l/m 0.6 km/h (0 Bft) W-NW 6.6 C 7.0 C
09.05.2004 12:00 7.1 C 97 % 1009.7 hPa 0.3 l/m 0.8 km/h (0 Bft) W-NW 6.7 C 7.1 C
09.05.2004 13:00 7.2 C 96 % 1009.8 hPa 0.0 l/m 3.0 km/h (1 Bft) W-NW 6.6 C 6.8 C
09.05.2004 14:00 7.2 C 94 % 1010.8 hPa 0.3 l/m 5.0 km/h (1 Bft) W-NW 6.4 C 6.4 C
09.05.2004 15:00 7.5 C 96 % 1010.7 hPa 0.0 l/m 2.2 km/h (1 Bft) W-NW 6.9 C 7.2 C
09.05.2004 16:00 7.4 C 95 % 1010.7 hPa 0.0 l/m 1.1 km/h (0 Bft) W-NW 6.7 C 7.3 C
09.05.2004 17:00 7.5 C 94 % 1010.7 hPa 0.0 l/m 0.3 km/h (0 Bft) W-NW 6.6 C 7.5 C
09.05.2004 18:00 7.3 C 96 % 1010.7 hPa 0.0 l/m 0.3 km/h (0 Bft) SO 6.7 C 7.3 C
09.05.2004 19:00 7.1 C 97 % 1011.4 hPa 0.0 l/m 0.1 km/h (0 Bft) N 6.7 C 7.1 C
09.05.2004 20:00 7.0 C 98 % 1011.8 hPa 0.0 l/m 0.0 km/h (0 Bft) N 6.7 C 7.0 C
09.05.2004 21:00 6.9 C 97 % 1011.9 hPa 0.0 l/m 0.0 km/h (0 Bft) N 6.6 C 6.9 C
09.05.2004 22:00 7.0 C 99 % 1012.8 hPa 0.0 l/m 0.1 km/h (0 Bft) N 6.8 C 7.0 C
09.05.2004 23:00 6.9 C 100 % 1012.9 hPa 0.0 l/m 0.0 km/h (0 Bft) N 6.9 C 6.9 C
Min-Datum _ 09.05.04 03.05.04 05.05.04 - 03.05.04 - 07.05.04 07.05.04
_ Min-Zeit 07:23 14:28 02:32 - 00:01 - 16:52 01:31
Minimum _ 4.3 C 27 % 990.7 hPa - 0.0 km/h (0 Bft) - -0.4 C -1.3 C
Max-Datum _ 03.05.04 03.05.04 09.05.04 08.05.04 07.05.04 - 04.05.04 03.05.04
_ Max-Zeit 15:19 06:10 23:26 21:00 01:31 - 23:08 15:19
Maximum _ 23.9 C 100 % 1012.9 hPa 5.4 l/m 59.8 km/h
SO (7 Bft)
- 11.9 C 23.9 C
Durchschnitt _ 9.4 C 82 % 1001.0 hPa #56.9 l/m 6.1 km/h (2 Bft) W-NW 6.0 C 9.0 C

Durchschnitt Minimum Temp.8.8 C
Durchschnitt Maximum Temp.10.1 C
© Kaiko 2004